Main page
METAR-TAF:

METAR-TAF

Airports :

Sofia, Bulgaria

Sofia Airport

latitude: 42-39N, longitude: 023-23E, elevation: 586 m

Current weather observation

The report was made 33 minutes ago, at 13:30 UTC
Wind 5 kt from the West/Northwest, varying between West and North
Temperature 23°C
Humidity 27%
Pressure 1017 hPa
Visibility 10 km or more
no clouds below 1500 m and no cumulonimbus

METAR: LBSF 211330Z 30005KT 270V350 CAVOK 23/03 Q1017 NOSIG

Time: 17:03 (14:03 UTC)

Forecast

The report was made 3 hours and 3 minutes ago, at 11:00 UTC
Forecast valid from 21 at 12 UTC to 22 at 12 UTC
Wind 4 kt from variable directions
Visibility 10 km or more
no clouds below 1500 m and no cumulonimbus
Temporary
from 22 at 01 UTC to 22 at 06 UTC
Visibility: 5000 m
mist
Probability 40%
from 22 at 03 UTC to 22 at 06 UTC
Visibility: 2500 m
Scattered clouds at a height of 1200 ft
mist

TAF: LBSF 211100Z 2112/2212 VRB04KT CAVOK TEMPO 2201/2206 5000 BR PROB40 2203/2206 2500 BR SCT012

Weather observations and forecasts of more than 4000 airports (METAR and TAF reports).

The available stations are represented by yellow and red dots on the map.

Hover mouse over dot to see the name of the station.

Then click to see weather observations and forecasts.

To change the map : click on the green buttons with a black cross to zoom in, on the green button with a dash to zoom out, or on the green arrows for adjacent maps.


METAR-TAF: